createdAt,value
2023-02-24T04:21:57.094Z,23.20
2023-02-24T04:33:01.941Z,29.80
2023-02-24T04:44:01.831Z,28.60
2023-02-24T04:55:01.695Z,28.90
2023-02-24T05:06:01.576Z,25.70
2023-02-24T05:17:01.458Z,35.20
2023-02-24T05:28:01.334Z,31.80
2023-02-24T05:39:01.216Z,32.10
2023-02-24T05:50:01.099Z,31.90
2023-02-24T06:01:00.955Z,27.30
2023-02-24T06:12:00.896Z,36.80
2023-02-24T06:23:00.729Z,35.90
2023-02-24T06:34:00.605Z,31.00
2023-02-24T06:45:00.502Z,30.50
2023-02-24T06:56:00.348Z,36.40
2023-02-24T07:07:00.229Z,36.60
2023-02-24T07:18:00.135Z,32.00
2023-02-24T07:28:59.983Z,38.00
2023-02-24T07:39:59.862Z,43.20
2023-02-24T07:50:59.735Z,40.90
2023-02-24T08:01:59.609Z,42.60
2023-02-24T08:12:59.489Z,41.10
2023-02-24T08:23:59.369Z,46.60
2023-02-24T08:34:59.264Z,31.40
2023-02-24T08:45:59.133Z,45.70
2023-02-24T08:56:59.009Z,36.30
2023-02-24T09:07:59.912Z,34.90
2023-02-24T09:18:58.767Z,38.70
2023-02-24T09:29:58.637Z,43.10
2023-02-24T09:41:01.024Z,36.90
2023-02-24T09:51:59.400Z,46.20
2023-02-24T10:02:58.280Z,46.40
2023-02-24T10:14:03.517Z,36.30
2023-02-24T10:24:58.030Z,36.00
2023-02-24T10:35:57.904Z,47.60
2023-02-24T10:46:57.808Z,41.90
2023-02-24T10:57:59.382Z,28.80
2023-02-24T11:08:58.061Z,30.60
2023-02-24T11:19:57.439Z,36.40
2023-02-24T11:30:57.439Z,28.40
2023-02-24T11:41:57.236Z,30.30
2023-02-24T11:52:57.064Z,27.70
2023-02-24T12:03:56.930Z,30.30
2023-02-24T12:14:56.792Z,31.90
2023-02-24T12:25:56.825Z,31.00
2023-02-24T12:36:56.584Z,20.30
2023-02-24T12:47:57.261Z,19.50
2023-02-24T12:58:56.379Z,21.90
2023-02-24T13:09:56.222Z,20.10
2023-02-24T13:20:56.049Z,18.20
2023-02-24T13:31:55.978Z,14.80
2023-02-24T13:42:55.821Z,21.10
2023-02-24T13:53:57.528Z,18.70
2023-02-24T14:04:55.605Z,21.90
2023-02-24T14:15:55.515Z,13.80
2023-02-24T14:26:55.317Z,6.80
2023-02-24T14:37:55.204Z,29.90
2023-02-24T14:48:55.081Z,13.30
2023-02-24T14:59:54.958Z,7.50
2023-02-24T15:10:55.411Z,6.60
2023-02-24T15:21:54.722Z,10.80
2023-02-24T15:32:54.648Z,9.80
2023-02-24T15:43:54.430Z,8.00
2023-02-24T15:54:54.313Z,7.10
2023-02-24T16:05:54.188Z,8.80
2023-02-24T16:16:54.145Z,10.00
2023-02-24T16:27:53.989Z,10.50
2023-02-24T16:38:53.842Z,10.10
2023-02-24T16:49:53.693Z,10.50
2023-02-24T17:00:53.631Z,11.30
2023-02-24T17:11:53.451Z,10.40
2023-02-24T17:22:53.333Z,7.60
2023-02-24T17:33:53.221Z,9.20
2023-02-24T17:44:53.096Z,8.30
2023-02-24T17:56:02.245Z,8.80
2023-02-24T18:06:52.835Z,8.20
2023-02-24T18:17:52.709Z,4.10
2023-02-24T18:28:52.596Z,5.70
2023-02-24T18:39:52.502Z,6.10
2023-02-24T18:50:52.356Z,4.00
2023-02-24T19:01:52.284Z,5.90
2023-02-24T19:12:52.129Z,3.70
2023-02-24T19:23:51.980Z,3.90
2023-02-24T19:34:51.851Z,6.10
2023-02-24T19:45:51.840Z,2.10
2023-02-24T19:56:51.617Z,2.50
2023-02-24T20:07:51.496Z,9.10
2023-02-24T20:18:51.370Z,5.60
2023-02-24T20:29:53.465Z,3.40
2023-02-24T20:40:51.117Z,3.30
2023-02-24T20:51:50.992Z,5.40
2023-02-24T21:02:50.913Z,7.10
2023-02-24T21:13:50.802Z,9.90
2023-02-24T21:24:50.632Z,9.20
2023-02-24T21:35:50.510Z,7.80
2023-02-24T21:46:50.420Z,6.00
2023-02-24T21:57:50.240Z,4.40
